sensor_id;sensor_type;location;lat;lon;timestamp;P1;durP1;ratioP1;P2;durP2;ratioP2
61460;SDS011;47325;50.506;4.472;2023-03-08T00:02:18;6.40;;;5.00;;
61460;SDS011;47325;50.506;4.472;2023-03-08T00:08:02;6.80;;;4.90;;
61460;SDS011;47325;50.506;4.472;2023-03-08T00:13:46;7.30;;;5.10;;
61460;SDS011;47325;50.506;4.472;2023-03-08T00:19:29;6.80;;;4.70;;
61460;SDS011;47325;50.506;4.472;2023-03-08T00:25:13;6.40;;;4.60;;
61460;SDS011;47325;50.506;4.472;2023-03-08T00:30:58;7.60;;;4.80;;
61460;SDS011;47325;50.506;4.472;2023-03-08T00:36:42;7.80;;;5.40;;
61460;SDS011;47325;50.506;4.472;2023-03-08T00:42:27;7.70;;;5.30;;
61460;SDS011;47325;50.506;4.472;2023-03-08T00:48:11;8.30;;;5.50;;
61460;SDS011;47325;50.506;4.472;2023-03-08T00:53:56;7.60;;;5.40;;
61460;SDS011;47325;50.506;4.472;2023-03-08T00:59:40;10.30;;;5.90;;
61460;SDS011;47325;50.506;4.472;2023-03-08T01:05:24;10.00;;;6.30;;
61460;SDS011;47325;50.506;4.472;2023-03-08T01:11:11;9.30;;;6.10;;
61460;SDS011;47325;50.506;4.472;2023-03-08T01:16:56;10.40;;;6.50;;
61460;SDS011;47325;50.506;4.472;2023-03-08T01:22:40;11.00;;;6.70;;
61460;SDS011;47325;50.506;4.472;2023-03-08T01:28:24;11.30;;;6.90;;
61460;SDS011;47325;50.506;4.472;2023-03-08T01:34:08;11.50;;;6.80;;
61460;SDS011;47325;50.506;4.472;2023-03-08T01:39:52;10.20;;;6.80;;
61460;SDS011;47325;50.506;4.472;2023-03-08T01:51:34;10.10;;;6.50;;
61460;SDS011;47325;50.506;4.472;2023-03-08T01:57:19;12.10;;;7.50;;
61460;SDS011;47325;50.506;4.472;2023-03-08T02:03:05;12.80;;;7.60;;
61460;SDS011;47325;50.506;4.472;2023-03-08T02:08:50;13.10;;;7.60;;
61460;SDS011;47325;50.506;4.472;2023-03-08T02:14:34;12.30;;;7.30;;
61460;SDS011;47325;50.506;4.472;2023-03-08T02:20:20;12.60;;;7.60;;
61460;SDS011;47325;50.506;4.472;2023-03-08T02:26:05;12.10;;;7.30;;
61460;SDS011;47325;50.506;4.472;2023-03-08T02:31:49;12.40;;;7.40;;
61460;SDS011;47325;50.506;4.472;2023-03-08T02:37:33;12.20;;;7.20;;
61460;SDS011;47325;50.506;4.472;2023-03-08T02:43:17;11.50;;;7.10;;
61460;SDS011;47325;50.506;4.472;2023-03-08T02:49:02;11.60;;;7.30;;
61460;SDS011;47325;50.506;4.472;2023-03-08T02:54:45;10.60;;;6.90;;
61460;SDS011;47325;50.506;4.472;2023-03-08T03:00:29;12.70;;;7.60;;
61460;SDS011;47325;50.506;4.472;2023-03-08T03:06:17;10.90;;;6.80;;
61460;SDS011;47325;50.506;4.472;2023-03-08T03:12:01;11.30;;;7.10;;
61460;SDS011;47325;50.506;4.472;2023-03-08T03:17:48;11.30;;;6.80;;
61460;SDS011;47325;50.506;4.472;2023-03-08T03:23:32;11.20;;;7.00;;
61460;SDS011;47325;50.506;4.472;2023-03-08T03:29:16;11.10;;;6.90;;
61460;SDS011;47325;50.506;4.472;2023-03-08T03:34:59;10.80;;;6.60;;
61460;SDS011;47325;50.506;4.472;2023-03-08T03:40:43;10.20;;;6.50;;
61460;SDS011;47325;50.506;4.472;2023-03-08T03:46:27;9.80;;;6.40;;
61460;SDS011;47325;50.506;4.472;2023-03-08T03:52:10;11.40;;;6.80;;
61460;SDS011;47325;50.506;4.472;2023-03-08T03:57:54;10.30;;;6.30;;
61460;SDS011;47325;50.506;4.472;2023-03-08T04:03:38;10.30;;;6.60;;
61460;SDS011;47325;50.506;4.472;2023-03-08T04:09:22;10.50;;;6.60;;
61460;SDS011;47325;50.506;4.472;2023-03-08T04:15:06;9.60;;;6.20;;
61460;SDS011;47325;50.506;4.472;2023-03-08T04:20:51;9.70;;;6.30;;
61460;SDS011;47325;50.506;4.472;2023-03-08T04:26:36;9.80;;;6.10;;
61460;SDS011;47325;50.506;4.472;2023-03-08T04:32:19;10.00;;;6.10;;
61460;SDS011;47325;50.506;4.472;2023-03-08T04:38:03;9.10;;;5.90;;
61460;SDS011;47325;50.506;4.472;2023-03-08T04:43:50;9.70;;;6.00;;
61460;SDS011;47325;50.506;4.472;2023-03-08T04:49:34;10.30;;;6.10;;
61460;SDS011;47325;50.506;4.472;2023-03-08T04:55:18;9.40;;;5.60;;
61460;SDS011;47325;50.506;4.472;2023-03-08T05:01:06;8.50;;;5.20;;
61460;SDS011;47325;50.506;4.472;2023-03-08T05:06:50;8.40;;;5.10;;
61460;SDS011;47325;50.506;4.472;2023-03-08T05:12:34;8.40;;;5.40;;
61460;SDS011;47325;50.506;4.472;2023-03-08T05:18:17;8.00;;;5.40;;
61460;SDS011;47325;50.506;4.472;2023-03-08T05:24:01;8.40;;;5.50;;
61460;SDS011;47325;50.506;4.472;2023-03-08T05:29:45;7.50;;;4.80;;
61460;SDS011;47325;50.506;4.472;2023-03-08T05:35:28;8.40;;;5.20;;
61460;SDS011;47325;50.506;4.472;2023-03-08T05:41:13;7.40;;;4.90;;
61460;SDS011;47325;50.506;4.472;2023-03-08T05:46:57;7.70;;;4.90;;
61460;SDS011;47325;50.506;4.472;2023-03-08T05:52:40;7.90;;;5.00;;
61460;SDS011;47325;50.506;4.472;2023-03-08T05:58:24;7.50;;;4.80;;
61460;SDS011;47325;50.506;4.472;2023-03-08T06:04:08;8.10;;;5.20;;
61460;SDS011;47325;50.506;4.472;2023-03-08T06:09:55;7.70;;;5.10;;
61460;SDS011;47325;50.506;4.472;2023-03-08T06:15:39;7.00;;;4.80;;
61460;SDS011;47325;50.506;4.472;2023-03-08T06:21:23;7.30;;;5.00;;
61460;SDS011;47325;50.506;4.472;2023-03-08T06:27:06;7.40;;;4.80;;
61460;SDS011;47325;50.506;4.472;2023-03-08T06:32:50;6.80;;;4.70;;
61460;SDS011;47325;50.506;4.472;2023-03-08T06:38:34;7.60;;;4.80;;
61460;SDS011;47325;50.506;4.472;2023-03-08T06:44:18;7.40;;;4.80;;
61460;SDS011;47325;50.506;4.472;2023-03-08T06:50:04;7.20;;;4.80;;
61460;SDS011;47325;50.506;4.472;2023-03-08T06:55:47;7.50;;;5.10;;
61460;SDS011;47325;50.506;4.472;2023-03-08T07:01:31;7.70;;;5.40;;
61460;SDS011;47325;50.506;4.472;2023-03-08T07:07:15;7.20;;;4.90;;
61460;SDS011;47325;50.506;4.472;2023-03-08T07:13:00;7.10;;;4.70;;
61460;SDS011;47325;50.506;4.472;2023-03-08T07:18:44;6.80;;;5.00;;
61460;SDS011;47325;50.506;4.472;2023-03-08T07:24:28;6.50;;;4.70;;
61460;SDS011;47325;50.506;4.472;2023-03-08T07:30:14;8.40;;;5.30;;
61460;SDS011;47325;50.506;4.472;2023-03-08T07:36:01;6.90;;;4.90;;
61460;SDS011;47325;50.506;4.472;2023-03-08T07:41:45;7.10;;;5.10;;
61460;SDS011;47325;50.506;4.472;2023-03-08T07:47:30;6.70;;;4.60;;
61460;SDS011;47325;50.506;4.472;2023-03-08T07:53:13;6.60;;;4.70;;
61460;SDS011;47325;50.506;4.472;2023-03-08T07:58:58;7.20;;;4.70;;
61460;SDS011;47325;50.506;4.472;2023-03-08T08:04:42;6.30;;;4.20;;
61460;SDS011;47325;50.506;4.472;2023-03-08T08:10:26;6.40;;;4.30;;
61460;SDS011;47325;50.506;4.472;2023-03-08T08:16:10;6.70;;;4.60;;
61460;SDS011;47325;50.506;4.472;2023-03-08T08:21:56;5.70;;;4.40;;
61460;SDS011;47325;50.506;4.472;2023-03-08T08:27:40;6.40;;;4.40;;
61460;SDS011;47325;50.506;4.472;2023-03-08T08:33:24;6.10;;;4.10;;
61460;SDS011;47325;50.506;4.472;2023-03-08T08:39:08;6.20;;;4.10;;
61460;SDS011;47325;50.506;4.472;2023-03-08T08:44:51;6.40;;;4.30;;
61460;SDS011;47325;50.506;4.472;2023-03-08T08:50:36;5.50;;;4.20;;
61460;SDS011;47325;50.506;4.472;2023-03-08T08:56:19;5.40;;;4.00;;
61460;SDS011;47325;50.506;4.472;2023-03-08T09:02:11;5.60;;;3.70;;
61460;SDS011;47325;50.506;4.472;2023-03-08T09:07:56;6.80;;;4.00;;
61460;SDS011;47325;50.506;4.472;2023-03-08T09:13:40;5.00;;;3.60;;
61460;SDS011;47325;50.506;4.472;2023-03-08T09:19:24;5.30;;;3.70;;
61460;SDS011;47325;50.506;4.472;2023-03-08T09:25:09;4.40;;;3.30;;
61460;SDS011;47325;50.506;4.472;2023-03-08T09:30:53;5.20;;;3.50;;
61460;SDS011;47325;50.506;4.472;2023-03-08T09:36:37;4.20;;;3.10;;
61460;SDS011;47325;50.506;4.472;2023-03-08T09:42:22;4.10;;;3.00;;
61460;SDS011;47325;50.506;4.472;2023-03-08T09:48:08;4.10;;;3.10;;
61460;SDS011;47325;50.506;4.472;2023-03-08T09:53:57;4.10;;;2.90;;
61460;SDS011;47325;50.506;4.472;2023-03-08T09:59:43;3.80;;;3.00;;
61460;SDS011;47325;50.506;4.472;2023-03-08T10:05:29;3.70;;;2.80;;
61460;SDS011;47325;50.506;4.472;2023-03-08T10:11:17;3.20;;;2.60;;
61460;SDS011;47325;50.506;4.472;2023-03-08T10:17:04;3.30;;;2.60;;
61460;SDS011;47325;50.506;4.472;2023-03-08T10:22:53;3.00;;;2.40;;
61460;SDS011;47325;50.506;4.472;2023-03-08T10:28:38;2.90;;;2.30;;
61460;SDS011;47325;50.506;4.472;2023-03-08T10:34:24;3.00;;;2.20;;
61460;SDS011;47325;50.506;4.472;2023-03-08T10:40:15;2.90;;;2.30;;
61460;SDS011;47325;50.506;4.472;2023-03-08T10:46:03;2.90;;;2.20;;
61460;SDS011;47325;50.506;4.472;2023-03-08T10:51:55;2.40;;;2.10;;
61460;SDS011;47325;50.506;4.472;2023-03-08T10:57:39;2.70;;;2.10;;
61460;SDS011;47325;50.506;4.472;2023-03-08T11:03:24;2.90;;;2.30;;
61460;SDS011;47325;50.506;4.472;2023-03-08T11:09:17;3.20;;;2.10;;
61460;SDS011;47325;50.506;4.472;2023-03-08T11:15:05;2.80;;;1.90;;
61460;SDS011;47325;50.506;4.472;2023-03-08T11:20:55;3.00;;;2.10;;
61460;SDS011;47325;50.506;4.472;2023-03-08T11:26:43;2.30;;;2.00;;
61460;SDS011;47325;50.506;4.472;2023-03-08T11:32:33;3.00;;;2.20;;
61460;SDS011;47325;50.506;4.472;2023-03-08T11:38:23;2.40;;;1.90;;
61460;SDS011;47325;50.506;4.472;2023-03-08T11:50:04;2.40;;;2.00;;
61460;SDS011;47325;50.506;4.472;2023-03-08T11:55:59;2.60;;;2.00;;
61460;SDS011;47325;50.506;4.472;2023-03-08T12:01:49;1.90;;;1.70;;
61460;SDS011;47325;50.506;4.472;2023-03-08T12:07:35;2.20;;;1.90;;
61460;SDS011;47325;50.506;4.472;2023-03-08T12:13:21;2.20;;;1.90;;
61460;SDS011;47325;50.506;4.472;2023-03-08T12:19:10;2.40;;;1.90;;
61460;SDS011;47325;50.506;4.472;2023-03-08T12:24:57;2.40;;;1.90;;
61460;SDS011;47325;50.506;4.472;2023-03-08T12:30:47;2.20;;;1.90;;
61460;SDS011;47325;50.506;4.472;2023-03-08T12:36:40;2.50;;;2.00;;
61460;SDS011;47325;50.506;4.472;2023-03-08T12:42:28;2.40;;;2.10;;
61460;SDS011;47325;50.506;4.472;2023-03-08T12:48:21;2.30;;;1.80;;
61460;SDS011;47325;50.506;4.472;2023-03-08T12:54:15;2.70;;;2.00;;
61460;SDS011;47325;50.506;4.472;2023-03-08T13:00:04;3.00;;;2.10;;
61460;SDS011;47325;50.506;4.472;2023-03-08T13:05:49;2.60;;;2.20;;
61460;SDS011;47325;50.506;4.472;2023-03-08T13:11:42;2.40;;;1.80;;
61460;SDS011;47325;50.506;4.472;2023-03-08T13:17:34;2.70;;;2.10;;
61460;SDS011;47325;50.506;4.472;2023-03-08T13:23:21;3.10;;;2.00;;
61460;SDS011;47325;50.506;4.472;2023-03-08T13:29:13;2.40;;;2.00;;
61460;SDS011;47325;50.506;4.472;2023-03-08T13:35:01;2.30;;;2.00;;
61460;SDS011;47325;50.506;4.472;2023-03-08T13:40:53;2.50;;;2.10;;
61460;SDS011;47325;50.506;4.472;2023-03-08T13:46:37;2.50;;;2.20;;
61460;SDS011;47325;50.506;4.472;2023-03-08T13:52:22;2.30;;;2.10;;
61460;SDS011;47325;50.506;4.472;2023-03-08T13:58:11;2.40;;;2.20;;
61460;SDS011;47325;50.506;4.472;2023-03-08T14:03:57;2.90;;;2.40;;
61460;SDS011;47325;50.506;4.472;2023-03-08T14:09:41;3.30;;;2.50;;
61460;SDS011;47325;50.506;4.472;2023-03-08T14:15:26;2.80;;;2.30;;
61460;SDS011;47325;50.506;4.472;2023-03-08T14:21:12;3.60;;;2.60;;
61460;SDS011;47325;50.506;4.472;2023-03-08T14:26:57;3.00;;;2.50;;
61460;SDS011;47325;50.506;4.472;2023-03-08T14:32:55;3.50;;;2.80;;
61460;SDS011;47325;50.506;4.472;2023-03-08T14:38:31;3.70;;;3.00;;
61460;SDS011;47325;50.506;4.472;2023-03-08T14:44:17;3.10;;;2.50;;
61460;SDS011;47325;50.506;4.472;2023-03-08T14:50:03;4.20;;;2.80;;
61460;SDS011;47325;50.506;4.472;2023-03-08T14:55:52;3.40;;;2.90;;
61460;SDS011;47325;50.506;4.472;2023-03-08T15:01:36;3.00;;;2.50;;
61460;SDS011;47325;50.506;4.472;2023-03-08T15:07:20;3.70;;;2.70;;
61460;SDS011;47325;50.506;4.472;2023-03-08T15:13:05;3.70;;;2.70;;
61460;SDS011;47325;50.506;4.472;2023-03-08T15:18:49;3.30;;;2.70;;
61460;SDS011;47325;50.506;4.472;2023-03-08T15:24:33;4.00;;;2.90;;
61460;SDS011;47325;50.506;4.472;2023-03-08T15:30:19;3.60;;;2.70;;
61460;SDS011;47325;50.506;4.472;2023-03-08T15:36:03;4.60;;;3.10;;
61460;SDS011;47325;50.506;4.472;2023-03-08T15:41:47;5.00;;;3.30;;
61460;SDS011;47325;50.506;4.472;2023-03-08T15:47:31;4.30;;;3.30;;
61460;SDS011;47325;50.506;4.472;2023-03-08T15:53:14;6.00;;;3.50;;
61460;SDS011;47325;50.506;4.472;2023-03-08T15:59:16;4.80;;;3.20;;
61460;SDS011;47325;50.506;4.472;2023-03-08T16:05:00;5.20;;;3.40;;
61460;SDS011;47325;50.506;4.472;2023-03-08T16:10:44;5.50;;;3.60;;
61460;SDS011;47325;50.506;4.472;2023-03-08T16:16:29;4.70;;;3.60;;
61460;SDS011;47325;50.506;4.472;2023-03-08T16:22:26;4.80;;;3.50;;
61460;SDS011;47325;50.506;4.472;2023-03-08T16:28:11;5.30;;;4.00;;
61460;SDS011;47325;50.506;4.472;2023-03-08T16:33:55;5.40;;;3.80;;
61460;SDS011;47325;50.506;4.472;2023-03-08T16:39:39;5.20;;;4.00;;
61460;SDS011;47325;50.506;4.472;2023-03-08T16:45:23;4.90;;;3.80;;
61460;SDS011;47325;50.506;4.472;2023-03-08T16:51:09;5.60;;;4.30;;
61460;SDS011;47325;50.506;4.472;2023-03-08T16:56:55;6.00;;;4.40;;
61460;SDS011;47325;50.506;4.472;2023-03-08T17:02:52;6.10;;;4.40;;
61460;SDS011;47325;50.506;4.472;2023-03-08T17:08:36;6.60;;;4.70;;
61460;SDS011;47325;50.506;4.472;2023-03-08T17:14:20;8.00;;;5.20;;
61460;SDS011;47325;50.506;4.472;2023-03-08T17:20:05;8.20;;;5.20;;
61460;SDS011;47325;50.506;4.472;2023-03-08T17:25:49;8.00;;;5.50;;
61460;SDS011;47325;50.506;4.472;2023-03-08T17:31:32;11.60;;;7.20;;
61460;SDS011;47325;50.506;4.472;2023-03-08T17:37:22;10.90;;;6.60;;
61460;SDS011;47325;50.506;4.472;2023-03-08T17:43:06;11.60;;;7.70;;
61460;SDS011;47325;50.506;4.472;2023-03-08T17:48:50;17.30;;;10.40;;
61460;SDS011;47325;50.506;4.472;2023-03-08T17:54:34;18.60;;;10.50;;
61460;SDS011;47325;50.506;4.472;2023-03-08T18:00:18;16.90;;;10.10;;
61460;SDS011;47325;50.506;4.472;2023-03-08T18:06:02;14.00;;;9.60;;
61460;SDS011;47325;50.506;4.472;2023-03-08T18:11:46;14.80;;;9.50;;
61460;SDS011;47325;50.506;4.472;2023-03-08T18:17:29;14.70;;;9.30;;
61460;SDS011;47325;50.506;4.472;2023-03-08T18:23:13;15.30;;;9.40;;
61460;SDS011;47325;50.506;4.472;2023-03-08T18:28:57;16.20;;;9.90;;
61460;SDS011;47325;50.506;4.472;2023-03-08T18:34:43;14.20;;;9.10;;
61460;SDS011;47325;50.506;4.472;2023-03-08T18:40:26;16.60;;;10.10;;
61460;SDS011;47325;50.506;4.472;2023-03-08T18:46:11;16.30;;;9.50;;
61460;SDS011;47325;50.506;4.472;2023-03-08T18:51:55;16.00;;;9.90;;
61460;SDS011;47325;50.506;4.472;2023-03-08T18:57:39;15.90;;;9.50;;
61460;SDS011;47325;50.506;4.472;2023-03-08T19:03:23;14.50;;;9.80;;
61460;SDS011;47325;50.506;4.472;2023-03-08T19:09:11;15.60;;;10.20;;
61460;SDS011;47325;50.506;4.472;2023-03-08T19:14:55;17.00;;;10.00;;
61460;SDS011;47325;50.506;4.472;2023-03-08T19:20:39;16.20;;;10.50;;
61460;SDS011;47325;50.506;4.472;2023-03-08T19:26:24;18.50;;;10.10;;
61460;SDS011;47325;50.506;4.472;2023-03-08T19:32:08;18.00;;;10.70;;
61460;SDS011;47325;50.506;4.472;2023-03-08T19:37:53;16.20;;;10.40;;
61460;SDS011;47325;50.506;4.472;2023-03-08T19:43:36;15.00;;;9.60;;
61460;SDS011;47325;50.506;4.472;2023-03-08T19:49:22;17.10;;;9.90;;
61460;SDS011;47325;50.506;4.472;2023-03-08T19:55:08;17.60;;;10.30;;
61460;SDS011;47325;50.506;4.472;2023-03-08T20:00:59;16.50;;;10.40;;
61460;SDS011;47325;50.506;4.472;2023-03-08T20:06:41;14.80;;;9.40;;
61460;SDS011;47325;50.506;4.472;2023-03-08T20:12:31;16.40;;;10.00;;
61460;SDS011;47325;50.506;4.472;2023-03-08T20:18:17;15.30;;;9.80;;
61460;SDS011;47325;50.506;4.472;2023-03-08T20:24:00;16.90;;;10.20;;
61460;SDS011;47325;50.506;4.472;2023-03-08T20:29:44;15.60;;;10.00;;
61460;SDS011;47325;50.506;4.472;2023-03-08T20:35:28;16.90;;;10.30;;
61460;SDS011;47325;50.506;4.472;2023-03-08T20:41:12;15.70;;;9.80;;
61460;SDS011;47325;50.506;4.472;2023-03-08T20:46:56;16.10;;;10.10;;
61460;SDS011;47325;50.506;4.472;2023-03-08T20:52:40;17.70;;;11.00;;
61460;SDS011;47325;50.506;4.472;2023-03-08T20:58:24;16.30;;;9.80;;
61460;SDS011;47325;50.506;4.472;2023-03-08T21:04:08;17.90;;;10.70;;
61460;SDS011;47325;50.506;4.472;2023-03-08T21:09:52;18.40;;;10.50;;
61460;SDS011;47325;50.506;4.472;2023-03-08T21:15:36;16.70;;;10.70;;
61460;SDS011;47325;50.506;4.472;2023-03-08T21:21:21;17.50;;;11.00;;
61460;SDS011;47325;50.506;4.472;2023-03-08T21:27:06;18.60;;;10.50;;
61460;SDS011;47325;50.506;4.472;2023-03-08T21:32:50;17.20;;;10.50;;
61460;SDS011;47325;50.506;4.472;2023-03-08T21:38:33;15.90;;;10.20;;
61460;SDS011;47325;50.506;4.472;2023-03-08T21:44:18;19.60;;;11.30;;
61460;SDS011;47325;50.506;4.472;2023-03-08T21:50:02;16.90;;;11.00;;
61460;SDS011;47325;50.506;4.472;2023-03-08T21:55:47;17.80;;;10.50;;
61460;SDS011;47325;50.506;4.472;2023-03-08T22:01:30;16.10;;;10.10;;
61460;SDS011;47325;50.506;4.472;2023-03-08T22:07:15;17.20;;;10.20;;
61460;SDS011;47325;50.506;4.472;2023-03-08T22:12:58;17.40;;;10.10;;
61460;SDS011;47325;50.506;4.472;2023-03-08T22:18:42;18.00;;;10.30;;
61460;SDS011;47325;50.506;4.472;2023-03-08T22:24:26;16.20;;;9.90;;
61460;SDS011;47325;50.506;4.472;2023-03-08T22:30:10;15.40;;;9.90;;
61460;SDS011;47325;50.506;4.472;2023-03-08T22:35:54;12.50;;;8.80;;
61460;SDS011;47325;50.506;4.472;2023-03-08T22:41:38;14.90;;;9.20;;
61460;SDS011;47325;50.506;4.472;2023-03-08T22:47:23;14.20;;;8.80;;
61460;SDS011;47325;50.506;4.472;2023-03-08T22:53:06;15.00;;;9.00;;
61460;SDS011;47325;50.506;4.472;2023-03-08T22:58:50;13.50;;;8.40;;
61460;SDS011;47325;50.506;4.472;2023-03-08T23:04:34;13.70;;;7.50;;
61460;SDS011;47325;50.506;4.472;2023-03-08T23:10:19;13.10;;;7.10;;
61460;SDS011;47325;50.506;4.472;2023-03-08T23:16:03;11.80;;;6.50;;
61460;SDS011;47325;50.506;4.472;2023-03-08T23:21:47;11.00;;;5.80;;
61460;SDS011;47325;50.506;4.472;2023-03-08T23:27:31;9.90;;;5.00;;
61460;SDS011;47325;50.506;4.472;2023-03-08T23:33:15;6.50;;;4.30;;
61460;SDS011;47325;50.506;4.472;2023-03-08T23:38:59;6.40;;;3.70;;
61460;SDS011;47325;50.506;4.472;2023-03-08T23:44:44;6.10;;;3.80;;
61460;SDS011;47325;50.506;4.472;2023-03-08T23:50:28;6.50;;;3.20;;
61460;SDS011;47325;50.506;4.472;2023-03-08T23:56:16;7.90;;;3.60;;
